Latest Weather Observations for Sellicks Hill

IDS60801

Issued at 2:05 am CST Wednesday 3 September 2014 (issued every 30 minutes, with the page automatically refreshed every 10 minutes)

About weather observations | Map of weather stations | Latest weather observations for SA | Other Formats
Station Details ID: 023886 Name: MOUNT TERRIBLE RADAR Lat: -35.33 Lon: 138.50 Height: 385.7 m
Data from the previous 72 hours. | See also: Recent months for locations in South Australia
Date/Time
CST
Temp
°C
App
Temp
°C
Dew
Point
Rel
Hum
%
Delta-T
°C
Wind Press
QNH
hPa
Press
MSL
hPa
Rain
since 9 am
mm
Dir
 
Spd
km/h
Gust
km/h
Spd
kts
Gust
kts
03/02:00am - - - - - SSE 17 19 9 10 - - -
03/01:30am - - - - - SSE 17 19 9 10 - - -
03/01:00am - - - - - SSE 19 20 10 11 - - -
03/12:30am - - - - - SSE 20 22 11 12 - - -
03/12:00am - - - - - SSE 20 22 11 12 - - -
 
Date/Time
CST
Temp
°C
App
Temp
°C
Dew
Point
Rel
Hum
%
Delta-T
°C
Wind Press
QNH
hPa
Press
MSL
hPa
Rain
since 9 am
mm
Dir
 
Spd
km/h
Gust
km/h
Spd
kts
Gust
kts
02/11:30pm - - - - - SSE 20 20 11 11 - - -
02/11:00pm - - - - - SSE 20 22 11 12 - - -
02/10:30pm - - - - - SSE 20 22 11 12 - - -
02/10:00pm - - - - - SE 19 24 10 13 - - -
02/09:30pm - - - - - SSE 24 26 13 14 - - -
02/09:00pm - - - - - SSE 24 26 13 14 - - -
02/08:30pm - - - - - SSE 24 28 13 15 - - -
02/08:00pm - - - - - SSE 26 28 14 15 - - -
02/07:30pm - - - - - SSE 24 28 13 15 - - -
02/07:00pm - - - - - SSE 26 32 14 17 - - -
02/06:30pm - - - - - SSE 24 28 13 15 - - -
02/06:00pm - - - - - S 20 22 11 12 - - -
02/05:30pm - - - - - S 20 24 11 13 - - -
02/05:00pm - - - - - SSE 20 33 11 18 - - -
02/04:30pm - - - - - S 17 24 9 13 - - -
02/04:00pm - - - - - S 20 26 11 14 - - -
02/03:30pm - - - - - S 20 26 11 14 - - -
02/03:00pm - - - - - S 24 32 13 17 - - -
02/02:30pm - - - - - SSE 28 33 15 18 - - -
02/02:00pm - - - - - S 20 30 11 16 - - -
02/01:30pm - - - - - S 24 35 13 19 - - -
02/01:00pm - - - - - S 26 44 14 24 - - -
02/12:30pm - - - - - SSE 20 26 11 14 - - -
02/12:00pm - - - - - S 26 35 14 19 - - -
02/11:30am - - - - - S 28 37 15 20 - - -
02/11:00am - - - - - S 26 33 14 18 - - -
02/10:30am - - - - - S 30 39 16 21 - - -
02/10:00am - - - - - S 32 41 17 22 - - -
02/09:30am - - - - - SSE 26 33 14 18 - - -
02/09:00am - - - - - S 19 26 10 14 - - -
02/08:30am - - - - - S 24 33 13 18 - - -
02/08:00am - - - - - S 15 24 8 13 - - -
02/07:30am - - - - - S 19 26 10 14 - - -
02/07:00am - - - - - S 20 28 11 15 - - -
02/06:30am - - - - - S 17 28 9 15 - - -
02/06:00am - - - - - S 13 20 7 11 - - -
02/05:30am - - - - - S 20 32 11 17 - - -
02/05:00am - - - - - S 13 22 7 12 - - -
02/04:30am - - - - - S 9 15 5 8 - - -
02/04:00am - - - - - SSW 11 22 6 12 - - -
02/03:30am - - - - - SSW 13 22 7 12 - - -
02/03:00am - - - - - SW 13 24 7 13 - - -
02/02:30am - - - - - SSW 13 26 7 14 - - -
02/02:00am - - - - - SSW 15 24 8 13 - - -
02/01:30am - - - - - SW 13 22 7 12 - - -
02/01:00am - - - - - SW 15 24 8 13 - - -
02/12:30am - - - - - SW 15 24 8 13 - - -
02/12:00am - - - - - SW 13 24 7 13 - - -
 
Date/Time
CST
Temp
°C
App
Temp
°C
Dew
Point
Rel
Hum
%
Delta-T
°C
Wind Press
QNH
hPa
Press
MSL
hPa
Rain
since 9 am
mm
Dir
 
Spd
km/h
Gust
km/h
Spd
kts
Gust
kts
01/11:30pm - - - - - SW 13 28 7 15 - - -
01/11:00pm - - - - - SW 13 26 7 14 - - -
01/10:30pm - - - - - WSW 13 26 7 14 - - -
01/10:00pm - - - - - SSW 13 26 7 14 - - -
01/09:30pm - - - - - SW 13 26 7 14 - - -
01/09:00pm - - - - - SW 11 22 6 12 - - -
01/08:30pm - - - - - SW 13 20 7 11 - - -
01/08:00pm - - - - - SW 13 26 7 14 - - -
01/07:30pm - - - - - SSW 15 24 8 13 - - -
01/07:00pm - - - - - W 9 20 5 11 - - -
01/06:30pm - - - - - W 7 19 4 10 - - -
01/06:00pm - - - - - W 7 17 4 9 - - -
01/05:30pm - - - - - W 7 17 4 9 - - -
01/05:00pm - - - - - WNW 11 22 6 12 - - -
01/04:30pm - - - - - WNW 9 19 5 10 - - -
01/04:00pm - - - - - WNW 11 20 6 11 - - -
01/03:30pm - - - - - WNW 9 19 5 10 - - -
01/03:00pm - - - - - W 15 24 8 13 - - -
01/02:30pm - - - - - WNW 13 24 7 13 - - -
01/02:00pm - - - - - WNW 13 22 7 12 - - -
01/01:30pm - - - - - WNW 13 24 7 13 - - -
01/01:00pm - - - - - WNW 13 26 7 14 - - -
01/12:30pm - - - - - W 13 22 7 12 - - -
01/12:00pm - - - - - W 11 30 6 16 - - -
01/11:30am - - - - - WNW 13 22 7 12 - - -
01/11:00am - - - - - WNW 13 28 7 15 - - -
01/10:30am - - - - - WNW 11 22 6 12 - - -
01/10:00am - - - - - W 9 24 5 13 - - -
01/09:30am - - - - - W 7 17 4 9 - - -
01/09:00am - - - - - W 7 17 4 9 - - -
01/08:30am - - - - - W 6 13 3 7 - - -
01/08:00am - - - - - W 6 13 3 7 - - -
01/07:30am - - - - - SW 7 15 4 8 - - -
01/07:00am - - - - - W 9 20 5 11 - - -
01/06:30am - - - - - WNW 9 19 5 10 - - -
01/06:00am - - - - - WNW 7 15 4 8 - - -
01/05:30am - - - - - WNW 11 20 6 11 - - -
01/05:00am - - - - - WNW 7 13 4 7 - - -
01/04:30am - - - - - WNW 7 15 4 8 - - -
01/04:00am - - - - - WNW 9 20 5 11 - - -
01/03:30am - - - - - WNW 11 20 6 11 - - -
01/03:00am - - - - - NW 9 30 5 16 - - -
01/02:30am - - - - - WNW 7 13 4 7 - - -
01/02:00am - - - - - W 7 15 4 8 - - -
01/01:30am - - - - - W 7 20 4 11 - - -
01/01:00am - - - - - WNW 11 22 6 12 - - -
01/12:30am - - - - - NW 9 15 5 8 - - -
01/12:00am - - - - - W 11 24 6 13 - - -
 
Date/Time
CST
Temp
°C
App
Temp
°C
Dew
Point
Rel
Hum
%
Delta-T
°C
Wind Press
QNH
hPa
Press
MSL
hPa
Rain
since 9 am
mm
Dir
 
Spd
km/h
Gust
km/h
Spd
kts
Gust
kts
31/11:30pm - - - - - W 7 15 4 8 - - -
31/11:00pm - - - - - WNW 7 19 4 10 - - -
31/10:30pm - - - - - WSW 9 17 5 9 - - -
31/10:00pm - - - - - WNW 6 17 3 9 - - -
31/09:30pm - - - - - W 7 15 4 8 - - -
31/09:00pm - - - - - WNW 7 17 4 9 - - -
31/08:30pm - - - - - WNW 7 20 4 11 - - -
31/08:00pm - - - - - NW 9 19 5 10 - - -
31/07:30pm - - - - - NW 11 26 6 14 - - -
31/07:00pm - - - - - NW 15 24 8 13 - - -
31/06:30pm - - - - - NW 15 26 8 14 - - -
31/06:00pm - - - - - NW 11 17 6 9 - - -
31/05:30pm - - - - - NW 13 26 7 14 - - -
31/05:00pm - - - - - NNW 19 32 10 17 - - -
31/04:30pm - - - - - NNW 20 30 11 16 - - -
31/04:00pm - - - - - NNW 24 39 13 21 - - -
31/03:30pm - - - - - NNW 24 35 13 19 - - -
31/03:00pm - - - - - N 24 37 13 20 - - -
31/02:30pm - - - - - NNW 22 35 12 19 - - -
31/02:00pm - - - - - NNW 20 37 11 20 - - -
31/01:30pm - - - - - N 19 30 10 16 - - -
31/01:00pm - - - - - NNW 22 37 12 20 - - -
31/12:30pm - - - - - N 26 44 14 24 - - -
31/12:00pm - - - - - N 22 44 12 24 - - -
31/11:30am - - - - - N 17 35 9 19 - - -
31/11:00am - - - - - N 17 28 9 15 - - -
31/10:30am - - - - - N 17 30 9 16 - - -
31/10:00am - - - - - N 17 32 9 17 - - -
31/09:30am - - - - - N 13 20 7 11 - - -
31/09:00am - - - - - N 17 28 9 15 - - -
31/08:30am - - - - - N 17 30 9 16 - - -
31/08:00am - - - - - NNW 19 32 10 17 - - -
31/07:30am - - - - - NNW 20 30 11 16 - - -
31/07:00am - - - - - N 17 30 9 16 - - -
31/06:30am - - - - - NNW 17 28 9 15 - - -
31/06:00am - - - - - NNW 19 28 10 15 - - -
31/05:30am - - - - - NNW 19 30 10 16 - - -
31/05:00am - - - - - NNW 17 32 9 17 - - -
31/04:30am - - - - - NNW 19 32 10 17 - - -
31/04:00am - - - - - NNW 17 28 9 15 - - -
31/03:30am - - - - - N 15 28 8 15 - - -
31/03:00am - - - - - N 13 20 7 11 - - -
31/02:30am - - - - - N 15 24 8 13 - - -

Other Formats:

Comma delimited format used in spreadsheet applications
http://www.bom.gov.au/fwo/IDS60801/IDS60801.95679.axf

JavaScript Object Notation format (JSON) in row-major order
http://www.bom.gov.au/fwo/IDS60801/IDS60801.95679.json